sensor_id;sensor_type;location;lat;lon;timestamp;temperature;humidity
30520;DHT22;17300;50.374;8.006;2024-02-23T00:00:47;13.80;47.00
30520;DHT22;17300;50.374;8.006;2024-02-23T00:03:13;13.80;47.00
30520;DHT22;17300;50.374;8.006;2024-02-23T00:05:41;13.80;47.00
30520;DHT22;17300;50.374;8.006;2024-02-23T00:08:08;13.70;46.90
30520;DHT22;17300;50.374;8.006;2024-02-23T00:10:35;13.70;46.90
30520;DHT22;17300;50.374;8.006;2024-02-23T00:13:01;13.70;46.90
30520;DHT22;17300;50.374;8.006;2024-02-23T00:15:28;13.70;46.90
30520;DHT22;17300;50.374;8.006;2024-02-23T00:17:55;13.60;46.90
30520;DHT22;17300;50.374;8.006;2024-02-23T00:20:22;13.60;46.90
30520;DHT22;17300;50.374;8.006;2024-02-23T00:22:50;13.60;46.90
30520;DHT22;17300;50.374;8.006;2024-02-23T00:25:17;13.50;46.90
30520;DHT22;17300;50.374;8.006;2024-02-23T00:27:44;13.50;46.90
30520;DHT22;17300;50.374;8.006;2024-02-23T00:30:13;13.50;46.80
30520;DHT22;17300;50.374;8.006;2024-02-23T00:32:40;13.40;46.70
30520;DHT22;17300;50.374;8.006;2024-02-23T00:35:07;13.40;46.80
30520;DHT22;17300;50.374;8.006;2024-02-23T00:37:33;13.40;46.70
30520;DHT22;17300;50.374;8.006;2024-02-23T00:40:02;13.30;46.60
30520;DHT22;17300;50.374;8.006;2024-02-23T00:42:29;13.30;46.50
30520;DHT22;17300;50.374;8.006;2024-02-23T00:44:56;13.30;46.30
30520;DHT22;17300;50.374;8.006;2024-02-23T00:47:22;13.20;46.10
30520;DHT22;17300;50.374;8.006;2024-02-23T00:49:49;13.10;46.20
30520;DHT22;17300;50.374;8.006;2024-02-23T00:52:16;13.10;46.20
30520;DHT22;17300;50.374;8.006;2024-02-23T00:54:43;13.00;46.00
30520;DHT22;17300;50.374;8.006;2024-02-23T00:57:11;13.00;46.10
30520;DHT22;17300;50.374;8.006;2024-02-23T00:59:38;12.90;45.90
30520;DHT22;17300;50.374;8.006;2024-02-23T01:02:05;12.90;45.90
30520;DHT22;17300;50.374;8.006;2024-02-23T01:04:32;12.90;45.90
30520;DHT22;17300;50.374;8.006;2024-02-23T01:06:58;12.80;46.00
30520;DHT22;17300;50.374;8.006;2024-02-23T01:09:25;12.80;46.00
30520;DHT22;17300;50.374;8.006;2024-02-23T01:11:52;12.70;46.00
30520;DHT22;17300;50.374;8.006;2024-02-23T01:14:20;12.70;46.00
30520;DHT22;17300;50.374;8.006;2024-02-23T01:16:46;12.60;45.90
30520;DHT22;17300;50.374;8.006;2024-02-23T01:19:13;12.70;46.10
30520;DHT22;17300;50.374;8.006;2024-02-23T01:21:41;12.60;46.00
30520;DHT22;17300;50.374;8.006;2024-02-23T01:24:08;12.60;46.10
30520;DHT22;17300;50.374;8.006;2024-02-23T01:26:34;12.50;46.10
30520;DHT22;17300;50.374;8.006;2024-02-23T01:29:01;12.50;46.00
30520;DHT22;17300;50.374;8.006;2024-02-23T01:31:30;12.50;46.20
30520;DHT22;17300;50.374;8.006;2024-02-23T01:33:56;12.40;46.20
30520;DHT22;17300;50.374;8.006;2024-02-23T01:36:23;12.40;46.20
30520;DHT22;17300;50.374;8.006;2024-02-23T01:38:50;12.40;46.10
30520;DHT22;17300;50.374;8.006;2024-02-23T01:41:16;12.40;46.10
30520;DHT22;17300;50.374;8.006;2024-02-23T01:43:43;12.30;46.10
30520;DHT22;17300;50.374;8.006;2024-02-23T01:46:10;12.30;46.10
30520;DHT22;17300;50.374;8.006;2024-02-23T01:48:38;12.30;46.00
30520;DHT22;17300;50.374;8.006;2024-02-23T01:51:04;12.30;46.00
30520;DHT22;17300;50.374;8.006;2024-02-23T01:53:31;12.20;46.00
30520;DHT22;17300;50.374;8.006;2024-02-23T01:55:59;12.20;46.10
30520;DHT22;17300;50.374;8.006;2024-02-23T01:58:28;12.20;46.10
30520;DHT22;17300;50.374;8.006;2024-02-23T02:00:56;12.20;46.10
30520;DHT22;17300;50.374;8.006;2024-02-23T02:03:22;12.10;46.10
30520;DHT22;17300;50.374;8.006;2024-02-23T02:05:51;12.10;46.20
30520;DHT22;17300;50.374;8.006;2024-02-23T02:08:19;12.10;46.20
30520;DHT22;17300;50.374;8.006;2024-02-23T02:10:46;12.10;46.20
30520;DHT22;17300;50.374;8.006;2024-02-23T02:13:14;12.10;46.20
30520;DHT22;17300;50.374;8.006;2024-02-23T02:15:41;12.00;46.10
30520;DHT22;17300;50.374;8.006;2024-02-23T02:18:09;12.00;46.10
30520;DHT22;17300;50.374;8.006;2024-02-23T02:20:38;12.00;46.10
30520;DHT22;17300;50.374;8.006;2024-02-23T02:23:08;12.00;46.10
30520;DHT22;17300;50.374;8.006;2024-02-23T02:25:36;12.00;46.10
30520;DHT22;17300;50.374;8.006;2024-02-23T02:28:06;12.00;46.50
30520;DHT22;17300;50.374;8.006;2024-02-23T02:30:32;12.00;46.20
30520;DHT22;17300;50.374;8.006;2024-02-23T02:32:59;11.90;46.20
30520;DHT22;17300;50.374;8.006;2024-02-23T02:35:26;11.90;46.20
30520;DHT22;17300;50.374;8.006;2024-02-23T02:37:52;11.90;46.20
30520;DHT22;17300;50.374;8.006;2024-02-23T02:40:20;11.90;46.30
30520;DHT22;17300;50.374;8.006;2024-02-23T02:42:47;11.90;46.20
30520;DHT22;17300;50.374;8.006;2024-02-23T02:45:14;11.90;46.20
30520;DHT22;17300;50.374;8.006;2024-02-23T02:47:40;11.90;46.20
30520;DHT22;17300;50.374;8.006;2024-02-23T02:50:08;11.90;46.20
30520;DHT22;17300;50.374;8.006;2024-02-23T02:52:35;11.90;46.10
30520;DHT22;17300;50.374;8.006;2024-02-23T02:55:03;11.80;46.00
30520;DHT22;17300;50.374;8.006;2024-02-23T02:57:31;11.80;45.90
30520;DHT22;17300;50.374;8.006;2024-02-23T02:59:57;11.80;45.90
30520;DHT22;17300;50.374;8.006;2024-02-23T03:02:24;11.80;45.90
30520;DHT22;17300;50.374;8.006;2024-02-23T03:04:51;11.80;45.90
30520;DHT22;17300;50.374;8.006;2024-02-23T03:07:20;11.80;45.90
30520;DHT22;17300;50.374;8.006;2024-02-23T03:09:46;11.80;45.90
30520;DHT22;17300;50.374;8.006;2024-02-23T03:12:14;11.80;45.90
30520;DHT22;17300;50.374;8.006;2024-02-23T03:14:42;11.70;45.80
30520;DHT22;17300;50.374;8.006;2024-02-23T03:17:09;11.70;45.80
30520;DHT22;17300;50.374;8.006;2024-02-23T03:19:35;11.70;45.80
30520;DHT22;17300;50.374;8.006;2024-02-23T03:22:02;11.70;45.90
30520;DHT22;17300;50.374;8.006;2024-02-23T03:24:29;11.70;45.80
30520;DHT22;17300;50.374;8.006;2024-02-23T03:26:56;11.70;45.90
30520;DHT22;17300;50.374;8.006;2024-02-23T03:29:23;11.60;45.80
30520;DHT22;17300;50.374;8.006;2024-02-23T03:31:51;11.70;45.90
30520;DHT22;17300;50.374;8.006;2024-02-23T03:34:18;11.60;46.40
30520;DHT22;17300;50.374;8.006;2024-02-23T03:36:44;11.70;45.90
30520;DHT22;17300;50.374;8.006;2024-02-23T03:39:11;11.60;45.80
30520;DHT22;17300;50.374;8.006;2024-02-23T03:41:38;11.60;45.80
30520;DHT22;17300;50.374;8.006;2024-02-23T03:44:04;11.60;45.90
30520;DHT22;17300;50.374;8.006;2024-02-23T03:46:31;11.60;45.90
30520;DHT22;17300;50.374;8.006;2024-02-23T03:48:59;11.60;45.90
30520;DHT22;17300;50.374;8.006;2024-02-23T03:51:25;11.60;45.90
30520;DHT22;17300;50.374;8.006;2024-02-23T03:53:52;11.70;46.00
30520;DHT22;17300;50.374;8.006;2024-02-23T03:56:19;11.70;46.10
30520;DHT22;17300;50.374;8.006;2024-02-23T03:58:46;11.70;46.10
30520;DHT22;17300;50.374;8.006;2024-02-23T04:01:13;11.70;46.20
30520;DHT22;17300;50.374;8.006;2024-02-23T04:03:39;11.70;46.20
30520;DHT22;17300;50.374;8.006;2024-02-23T04:06:07;11.80;46.20
30520;DHT22;17300;50.374;8.006;2024-02-23T04:08:34;11.80;46.20
30520;DHT22;17300;50.374;8.006;2024-02-23T04:11:01;11.80;46.20
30520;DHT22;17300;50.374;8.006;2024-02-23T04:13:27;11.80;46.10
30520;DHT22;17300;50.374;8.006;2024-02-23T04:15:54;11.80;46.00
30520;DHT22;17300;50.374;8.006;2024-02-23T04:18:22;11.80;46.00
30520;DHT22;17300;50.374;8.006;2024-02-23T04:20:49;11.80;46.00
30520;DHT22;17300;50.374;8.006;2024-02-23T04:23:17;11.80;46.00
30520;DHT22;17300;50.374;8.006;2024-02-23T04:25:44;11.90;46.20
30520;DHT22;17300;50.374;8.006;2024-02-23T04:28:11;11.80;46.10
30520;DHT22;17300;50.374;8.006;2024-02-23T04:30:37;11.80;46.00
30520;DHT22;17300;50.374;8.006;2024-02-23T04:33:04;11.80;46.00
30520;DHT22;17300;50.374;8.006;2024-02-23T04:35:31;11.80;46.10
30520;DHT22;17300;50.374;8.006;2024-02-23T04:37:57;11.80;46.20
30520;DHT22;17300;50.374;8.006;2024-02-23T04:40:25;11.80;46.20
30520;DHT22;17300;50.374;8.006;2024-02-23T04:42:52;11.80;46.20
30520;DHT22;17300;50.374;8.006;2024-02-23T04:45:19;11.80;46.20
30520;DHT22;17300;50.374;8.006;2024-02-23T04:47:45;11.90;46.30
30520;DHT22;17300;50.374;8.006;2024-02-23T04:50:13;11.90;46.30
30520;DHT22;17300;50.374;8.006;2024-02-23T04:52:40;11.90;46.30
30520;DHT22;17300;50.374;8.006;2024-02-23T04:55:07;11.90;46.30
30520;DHT22;17300;50.374;8.006;2024-02-23T04:57:36;11.90;46.30
30520;DHT22;17300;50.374;8.006;2024-02-23T05:00:03;11.90;46.20
30520;DHT22;17300;50.374;8.006;2024-02-23T05:02:33;11.90;46.20
30520;DHT22;17300;50.374;8.006;2024-02-23T05:05:00;12.00;46.20
30520;DHT22;17300;50.374;8.006;2024-02-23T05:07:29;11.90;46.10
30520;DHT22;17300;50.374;8.006;2024-02-23T05:09:56;12.00;46.10
30520;DHT22;17300;50.374;8.006;2024-02-23T05:12:23;12.00;46.10
30520;DHT22;17300;50.374;8.006;2024-02-23T05:14:51;12.00;46.10
30520;DHT22;17300;50.374;8.006;2024-02-23T05:17:18;11.90;45.80
30520;DHT22;17300;50.374;8.006;2024-02-23T05:19:44;11.90;45.80
30520;DHT22;17300;50.374;8.006;2024-02-23T05:22:12;11.90;45.80
30520;DHT22;17300;50.374;8.006;2024-02-23T05:24:38;11.90;45.80
30520;DHT22;17300;50.374;8.006;2024-02-23T05:27:05;11.90;45.90
30520;DHT22;17300;50.374;8.006;2024-02-23T05:29:31;11.90;45.90
30520;DHT22;17300;50.374;8.006;2024-02-23T05:31:59;11.80;45.90
30520;DHT22;17300;50.374;8.006;2024-02-23T05:34:26;11.80;45.90
30520;DHT22;17300;50.374;8.006;2024-02-23T05:36:53;11.80;45.90
30520;DHT22;17300;50.374;8.006;2024-02-23T05:39:19;11.80;46.00
30520;DHT22;17300;50.374;8.006;2024-02-23T05:41:46;11.80;46.00
30520;DHT22;17300;50.374;8.006;2024-02-23T05:44:13;11.70;46.00
30520;DHT22;17300;50.374;8.006;2024-02-23T05:46:40;11.80;46.10
30520;DHT22;17300;50.374;8.006;2024-02-23T05:49:11;11.80;46.10
30520;DHT22;17300;50.374;8.006;2024-02-23T05:51:38;11.80;46.10
30520;DHT22;17300;50.374;8.006;2024-02-23T05:54:04;11.70;46.00
30520;DHT22;17300;50.374;8.006;2024-02-23T05:56:31;11.70;46.00
30520;DHT22;17300;50.374;8.006;2024-02-23T05:58:58;11.70;46.00
30520;DHT22;17300;50.374;8.006;2024-02-23T06:01:24;11.70;46.00
30520;DHT22;17300;50.374;8.006;2024-02-23T06:03:51;11.70;46.00
30520;DHT22;17300;50.374;8.006;2024-02-23T06:06:20;11.70;45.90
30520;DHT22;17300;50.374;8.006;2024-02-23T06:08:46;11.60;45.80
30520;DHT22;17300;50.374;8.006;2024-02-23T06:11:15;11.60;45.80
30520;DHT22;17300;50.374;8.006;2024-02-23T06:13:41;11.60;45.80
30520;DHT22;17300;50.374;8.006;2024-02-23T06:16:10;11.60;45.70
30520;DHT22;17300;50.374;8.006;2024-02-23T06:18:37;11.60;45.70
30520;DHT22;17300;50.374;8.006;2024-02-23T06:21:11;11.60;45.70
30520;DHT22;17300;50.374;8.006;2024-02-23T06:23:40;11.50;45.60
30520;DHT22;17300;50.374;8.006;2024-02-23T06:26:07;11.50;45.60
30520;DHT22;17300;50.374;8.006;2024-02-23T06:28:33;11.50;45.60
30520;DHT22;17300;50.374;8.006;2024-02-23T06:31:00;11.50;45.50
30520;DHT22;17300;50.374;8.006;2024-02-23T06:33:27;11.50;45.60
30520;DHT22;17300;50.374;8.006;2024-02-23T06:35:55;11.50;45.60
30520;DHT22;17300;50.374;8.006;2024-02-23T06:38:21;11.50;45.70
30520;DHT22;17300;50.374;8.006;2024-02-23T06:40:49;11.50;45.70
30520;DHT22;17300;50.374;8.006;2024-02-23T06:43:16;11.50;45.70
30520;DHT22;17300;50.374;8.006;2024-02-23T06:45:42;11.50;45.70
30520;DHT22;17300;50.374;8.006;2024-02-23T06:48:09;11.50;45.80
30520;DHT22;17300;50.374;8.006;2024-02-23T06:50:36;11.50;45.90
30520;DHT22;17300;50.374;8.006;2024-02-23T06:53:03;11.50;45.90
30520;DHT22;17300;50.374;8.006;2024-02-23T06:55:32;11.60;46.00
30520;DHT22;17300;50.374;8.006;2024-02-23T06:58:00;11.60;46.00
30520;DHT22;17300;50.374;8.006;2024-02-23T07:00:27;11.60;45.90
30520;DHT22;17300;50.374;8.006;2024-02-23T07:02:54;11.60;46.00
30520;DHT22;17300;50.374;8.006;2024-02-23T07:05:20;11.60;46.00
30520;DHT22;17300;50.374;8.006;2024-02-23T07:07:47;11.60;45.90
30520;DHT22;17300;50.374;8.006;2024-02-23T07:10:14;11.70;46.00
30520;DHT22;17300;50.374;8.006;2024-02-23T07:12:43;11.70;46.00
30520;DHT22;17300;50.374;8.006;2024-02-23T07:15:11;11.70;45.90
30520;DHT22;17300;50.374;8.006;2024-02-23T07:17:37;11.70;45.90
30520;DHT22;17300;50.374;8.006;2024-02-23T07:20:05;11.70;45.90
30520;DHT22;17300;50.374;8.006;2024-02-23T07:22:32;11.70;45.90
30520;DHT22;17300;50.374;8.006;2024-02-23T07:24:59;11.80;45.90
30520;DHT22;17300;50.374;8.006;2024-02-23T07:27:27;11.80;45.90
30520;DHT22;17300;50.374;8.006;2024-02-23T07:29:53;11.80;45.90
30520;DHT22;17300;50.374;8.006;2024-02-23T07:32:21;11.90;45.90
30520;DHT22;17300;50.374;8.006;2024-02-23T07:34:48;11.90;45.90
30520;DHT22;17300;50.374;8.006;2024-02-23T07:37:15;12.00;45.90
30520;DHT22;17300;50.374;8.006;2024-02-23T07:39:41;12.00;45.90
30520;DHT22;17300;50.374;8.006;2024-02-23T07:42:08;12.00;45.90
30520;DHT22;17300;50.374;8.006;2024-02-23T07:44:36;12.00;45.80
30520;DHT22;17300;50.374;8.006;2024-02-23T07:47:04;12.00;45.60
30520;DHT22;17300;50.374;8.006;2024-02-23T07:49:32;12.00;45.70
30520;DHT22;17300;50.374;8.006;2024-02-23T07:51:59;12.00;45.70
30520;DHT22;17300;50.374;8.006;2024-02-23T07:54:26;12.00;45.80
30520;DHT22;17300;50.374;8.006;2024-02-23T07:56:52;12.00;45.90
30520;DHT22;17300;50.374;8.006;2024-02-23T07:59:19;12.10;46.00
30520;DHT22;17300;50.374;8.006;2024-02-23T08:01:46;12.10;46.10
30520;DHT22;17300;50.374;8.006;2024-02-23T08:04:13;12.10;46.10
30520;DHT22;17300;50.374;8.006;2024-02-23T08:06:41;12.20;46.20
30520;DHT22;17300;50.374;8.006;2024-02-23T08:09:08;12.20;46.20
30520;DHT22;17300;50.374;8.006;2024-02-23T08:11:35;12.20;46.20
30520;DHT22;17300;50.374;8.006;2024-02-23T08:14:01;12.30;46.30
30520;DHT22;17300;50.374;8.006;2024-02-23T08:16:28;12.30;46.20
30520;DHT22;17300;50.374;8.006;2024-02-23T08:18:55;12.30;46.00
30520;DHT22;17300;50.374;8.006;2024-02-23T08:21:21;12.30;46.10
30520;DHT22;17300;50.374;8.006;2024-02-23T08:23:49;12.30;46.20
30520;DHT22;17300;50.374;8.006;2024-02-23T08:26:16;12.30;46.10
30520;DHT22;17300;50.374;8.006;2024-02-23T08:28:43;12.30;46.10
30520;DHT22;17300;50.374;8.006;2024-02-23T08:31:09;12.30;46.20
30520;DHT22;17300;50.374;8.006;2024-02-23T08:33:36;12.20;46.20
30520;DHT22;17300;50.374;8.006;2024-02-23T08:36:04;12.30;46.20
30520;DHT22;17300;50.374;8.006;2024-02-23T08:38:31;12.20;46.00
30520;DHT22;17300;50.374;8.006;2024-02-23T08:40:59;12.20;46.20
30520;DHT22;17300;50.374;8.006;2024-02-23T08:43:25;12.20;46.20
30520;DHT22;17300;50.374;8.006;2024-02-23T08:45:52;12.30;46.50
30520;DHT22;17300;50.374;8.006;2024-02-23T08:48:19;12.30;46.60
30520;DHT22;17300;50.374;8.006;2024-02-23T08:50:45;12.30;46.60
30520;DHT22;17300;50.374;8.006;2024-02-23T08:53:12;12.40;46.70
30520;DHT22;17300;50.374;8.006;2024-02-23T08:55:39;12.40;46.60
30520;DHT22;17300;50.374;8.006;2024-02-23T08:58:07;12.40;46.50
30520;DHT22;17300;50.374;8.006;2024-02-23T09:00:35;12.40;46.40
30520;DHT22;17300;50.374;8.006;2024-02-23T09:03:02;12.40;46.40
30520;DHT22;17300;50.374;8.006;2024-02-23T09:05:29;12.50;46.40
30520;DHT22;17300;50.374;8.006;2024-02-23T09:07:56;12.50;46.30
30520;DHT22;17300;50.374;8.006;2024-02-23T09:10:23;12.50;46.20
30520;DHT22;17300;50.374;8.006;2024-02-23T09:12:49;12.40;46.00
30520;DHT22;17300;50.374;8.006;2024-02-23T09:15:18;12.40;46.00
30520;DHT22;17300;50.374;8.006;2024-02-23T09:17:46;12.40;46.00
30520;DHT22;17300;50.374;8.006;2024-02-23T09:20:12;12.40;46.20
30520;DHT22;17300;50.374;8.006;2024-02-23T09:22:39;12.30;46.10
30520;DHT22;17300;50.374;8.006;2024-02-23T09:25:07;12.30;46.20
30520;DHT22;17300;50.374;8.006;2024-02-23T09:27:34;12.40;46.30
30520;DHT22;17300;50.374;8.006;2024-02-23T09:30:02;12.30;46.90
30520;DHT22;17300;50.374;8.006;2024-02-23T09:32:30;12.30;46.90
30520;DHT22;17300;50.374;8.006;2024-02-23T09:34:57;12.30;46.30
30520;DHT22;17300;50.374;8.006;2024-02-23T09:37:24;12.30;46.30
30520;DHT22;17300;50.374;8.006;2024-02-23T09:39:50;12.30;46.40
30520;DHT22;17300;50.374;8.006;2024-02-23T09:42:18;12.30;46.30
30520;DHT22;17300;50.374;8.006;2024-02-23T09:44:47;12.30;46.50
30520;DHT22;17300;50.374;8.006;2024-02-23T09:47:16;12.40;47.00
30520;DHT22;17300;50.374;8.006;2024-02-23T09:49:47;12.50;47.50
30520;DHT22;17300;50.374;8.006;2024-02-23T09:52:16;12.70;48.20
30520;DHT22;17300;50.374;8.006;2024-02-23T09:54:45;12.90;49.20
30520;DHT22;17300;50.374;8.006;2024-02-23T09:57:12;13.40;50.90
30520;DHT22;17300;50.374;8.006;2024-02-23T09:59:40;13.80;51.30
30520;DHT22;17300;50.374;8.006;2024-02-23T10:02:09;14.40;52.80
30520;DHT22;17300;50.374;8.006;2024-02-23T10:04:36;15.10;53.30
30520;DHT22;17300;50.374;8.006;2024-02-23T10:07:06;15.80;52.90
30520;DHT22;17300;50.374;8.006;2024-02-23T10:09:32;16.40;52.40
30520;DHT22;17300;50.374;8.006;2024-02-23T10:11:59;16.90;52.30
30520;DHT22;17300;50.374;8.006;2024-02-23T10:14:26;17.40;51.20
30520;DHT22;17300;50.374;8.006;2024-02-23T10:16:52;17.70;49.80
30520;DHT22;17300;50.374;8.006;2024-02-23T10:19:20;17.90;48.50
30520;DHT22;17300;50.374;8.006;2024-02-23T10:21:59;18.00;47.50
30520;DHT22;17300;50.374;8.006;2024-02-23T10:24:28;17.90;45.90
30520;DHT22;17300;50.374;8.006;2024-02-23T10:26:54;17.90;46.10
30520;DHT22;17300;50.374;8.006;2024-02-23T10:29:22;17.90;44.90
30520;DHT22;17300;50.374;8.006;2024-02-23T10:31:51;17.70;44.30
30520;DHT22;17300;50.374;8.006;2024-02-23T10:34:19;17.50;43.60
30520;DHT22;17300;50.374;8.006;2024-02-23T10:36:46;17.20;42.90
30520;DHT22;17300;50.374;8.006;2024-02-23T10:39:16;16.90;42.50
30520;DHT22;17300;50.374;8.006;2024-02-23T10:41:47;16.70;42.80
30520;DHT22;17300;50.374;8.006;2024-02-23T10:44:18;16.40;42.80
30520;DHT22;17300;50.374;8.006;2024-02-23T10:46:46;16.20;43.00
30520;DHT22;17300;50.374;8.006;2024-02-23T10:49:15;16.10;43.70
30520;DHT22;17300;50.374;8.006;2024-02-23T10:51:43;16.10;44.90
30520;DHT22;17300;50.374;8.006;2024-02-23T10:54:13;16.10;45.00
30520;DHT22;17300;50.374;8.006;2024-02-23T10:56:40;16.20;45.60
30520;DHT22;17300;50.374;8.006;2024-02-23T10:59:09;16.20;44.50
30520;DHT22;17300;50.374;8.006;2024-02-23T11:01:36;16.20;43.80
30520;DHT22;17300;50.374;8.006;2024-02-23T11:04:06;16.00;43.80
30520;DHT22;17300;50.374;8.006;2024-02-23T11:06:34;15.90;44.00
30520;DHT22;17300;50.374;8.006;2024-02-23T11:09:07;15.90;45.10
30520;DHT22;17300;50.374;8.006;2024-02-23T11:11:34;16.00;45.70
30520;DHT22;17300;50.374;8.006;2024-02-23T11:14:03;16.10;45.90
30520;DHT22;17300;50.374;8.006;2024-02-23T11:16:38;16.10;45.60
30520;DHT22;17300;50.374;8.006;2024-02-23T11:19:06;16.10;44.90
30520;DHT22;17300;50.374;8.006;2024-02-23T11:21:35;16.10;44.50
30520;DHT22;17300;50.374;8.006;2024-02-23T11:24:03;16.10;44.20
30520;DHT22;17300;50.374;8.006;2024-02-23T11:26:30;16.00;43.70
30520;DHT22;17300;50.374;8.006;2024-02-23T11:28:59;15.90;43.80
30520;DHT22;17300;50.374;8.006;2024-02-23T11:31:29;15.80;43.70
30520;DHT22;17300;50.374;8.006;2024-02-23T11:33:58;15.80;44.80
30520;DHT22;17300;50.374;8.006;2024-02-23T11:36:28;15.90;45.20
30520;DHT22;17300;50.374;8.006;2024-02-23T11:38:57;15.90;45.20
30520;DHT22;17300;50.374;8.006;2024-02-23T11:41:24;16.10;46.10
30520;DHT22;17300;50.374;8.006;2024-02-23T11:43:52;16.40;47.40
30520;DHT22;17300;50.374;8.006;2024-02-23T11:46:19;16.70;47.80
30520;DHT22;17300;50.374;8.006;2024-02-23T11:48:46;17.10;48.60
30520;DHT22;17300;50.374;8.006;2024-02-23T11:51:20;17.50;47.70
30520;DHT22;17300;50.374;8.006;2024-02-23T11:53:47;17.80;46.20
30520;DHT22;17300;50.374;8.006;2024-02-23T11:56:14;17.90;45.20
30520;DHT22;17300;50.374;8.006;2024-02-23T11:58:41;17.90;44.00
30520;DHT22;17300;50.374;8.006;2024-02-23T12:01:08;17.90;43.30
30520;DHT22;17300;50.374;8.006;2024-02-23T12:03:35;17.90;43.00
30520;DHT22;17300;50.374;8.006;2024-02-23T12:06:03;17.80;42.10
30520;DHT22;17300;50.374;8.006;2024-02-23T12:08:32;17.60;41.80
30520;DHT22;17300;50.374;8.006;2024-02-23T12:11:07;17.40;41.20
30520;DHT22;17300;50.374;8.006;2024-02-23T12:13:48;17.20;40.90
30520;DHT22;17300;50.374;8.006;2024-02-23T12:16:18;17.00;41.00
30520;DHT22;17300;50.374;8.006;2024-02-23T12:18:44;16.80;40.70
30520;DHT22;17300;50.374;8.006;2024-02-23T12:21:11;16.70;40.80
30520;DHT22;17300;50.374;8.006;2024-02-23T12:23:41;16.50;40.80
30520;DHT22;17300;50.374;8.006;2024-02-23T12:26:08;16.30;40.70
30520;DHT22;17300;50.374;8.006;2024-02-23T12:28:36;16.10;40.90
30520;DHT22;17300;50.374;8.006;2024-02-23T12:41:59;16.10;41.40
30520;DHT22;17300;50.374;8.006;2024-02-23T12:44:45;16.10;41.70
30520;DHT22;17300;50.374;8.006;2024-02-23T12:47:26;16.30;42.90
30520;DHT22;17300;50.374;8.006;2024-02-23T12:56:24;17.60;44.30
30520;DHT22;17300;50.374;8.006;2024-02-23T12:58:52;17.90;44.40
30520;DHT22;17300;50.374;8.006;2024-02-23T13:01:20;18.10;43.60
30520;DHT22;17300;50.374;8.006;2024-02-23T13:03:48;18.20;42.80
30520;DHT22;17300;50.374;8.006;2024-02-23T13:06:15;18.30;42.50
30520;DHT22;17300;50.374;8.006;2024-02-23T13:08:41;18.40;42.20
30520;DHT22;17300;50.374;8.006;2024-02-23T13:11:09;18.40;41.50
30520;DHT22;17300;50.374;8.006;2024-02-23T13:13:35;18.30;40.70
30520;DHT22;17300;50.374;8.006;2024-02-23T13:16:04;18.20;40.60
30520;DHT22;17300;50.374;8.006;2024-02-23T13:18:31;18.00;39.90
30520;DHT22;17300;50.374;8.006;2024-02-23T13:20:58;17.80;40.00
30520;DHT22;17300;50.374;8.006;2024-02-23T13:23:25;17.70;40.20
30520;DHT22;17300;50.374;8.006;2024-02-23T13:25:51;17.50;40.20
30520;DHT22;17300;50.374;8.006;2024-02-23T13:28:17;17.40;40.30
30520;DHT22;17300;50.374;8.006;2024-02-23T13:30:44;17.20;40.40
30520;DHT22;17300;50.374;8.006;2024-02-23T13:33:12;17.10;40.40
30520;DHT22;17300;50.374;8.006;2024-02-23T13:35:40;16.90;40.30
30520;DHT22;17300;50.374;8.006;2024-02-23T13:45:21;16.40;39.70
30520;DHT22;17300;50.374;8.006;2024-02-23T13:48:03;16.20;39.80
30520;DHT22;17300;50.374;8.006;2024-02-23T13:50:32;16.10;40.10
30520;DHT22;17300;50.374;8.006;2024-02-23T13:52:59;16.00;40.20
30520;DHT22;17300;50.374;8.006;2024-02-23T13:55:26;15.90;40.20
30520;DHT22;17300;50.374;8.006;2024-02-23T13:57:52;15.80;40.30
30520;DHT22;17300;50.374;8.006;2024-02-23T14:00:20;15.70;40.20
30520;DHT22;17300;50.374;8.006;2024-02-23T14:02:47;15.70;40.40
30520;DHT22;17300;50.374;8.006;2024-02-23T14:05:14;15.70;40.40
30520;DHT22;17300;50.374;8.006;2024-02-23T14:07:44;15.70;40.40
30520;DHT22;17300;50.374;8.006;2024-02-23T14:10:11;15.70;40.60
30520;DHT22;17300;50.374;8.006;2024-02-23T14:12:38;15.70;40.60
30520;DHT22;17300;50.374;8.006;2024-02-23T14:15:05;15.70;40.60
30520;DHT22;17300;50.374;8.006;2024-02-23T14:17:31;15.70;40.70
30520;DHT22;17300;50.374;8.006;2024-02-23T14:19:59;15.70;40.40
30520;DHT22;17300;50.374;8.006;2024-02-23T14:22:25;15.70;40.40
30520;DHT22;17300;50.374;8.006;2024-02-23T14:24:54;15.70;40.10
30520;DHT22;17300;50.374;8.006;2024-02-23T14:27:21;15.60;40.00
30520;DHT22;17300;50.374;8.006;2024-02-23T14:29:48;15.60;40.00
30520;DHT22;17300;50.374;8.006;2024-02-23T14:32:16;15.60;40.00
30520;DHT22;17300;50.374;8.006;2024-02-23T14:34:43;15.50;39.60
30520;DHT22;17300;50.374;8.006;2024-02-23T14:37:10;15.40;39.60
30520;DHT22;17300;50.374;8.006;2024-02-23T14:39:37;15.40;39.60
30520;DHT22;17300;50.374;8.006;2024-02-23T14:42:06;15.40;39.70
30520;DHT22;17300;50.374;8.006;2024-02-23T14:44:34;15.30;39.80
30520;DHT22;17300;50.374;8.006;2024-02-23T14:47:01;15.30;39.80
30520;DHT22;17300;50.374;8.006;2024-02-23T14:49:28;15.30;39.90
30520;DHT22;17300;50.374;8.006;2024-02-23T14:51:54;15.30;40.00
30520;DHT22;17300;50.374;8.006;2024-02-23T14:54:21;15.20;39.60
30520;DHT22;17300;50.374;8.006;2024-02-23T14:56:48;15.20;39.80
30520;DHT22;17300;50.374;8.006;2024-02-23T14:59:15;15.20;40.10
30520;DHT22;17300;50.374;8.006;2024-02-23T15:01:42;15.10;40.20
30520;DHT22;17300;50.374;8.006;2024-02-23T15:04:09;15.20;40.30
30520;DHT22;17300;50.374;8.006;2024-02-23T15:06:35;15.20;40.30
30520;DHT22;17300;50.374;8.006;2024-02-23T15:09:03;15.10;40.20
30520;DHT22;17300;50.374;8.006;2024-02-23T15:11:29;15.10;40.20
30520;DHT22;17300;50.374;8.006;2024-02-23T15:13:56;15.10;40.10
30520;DHT22;17300;50.374;8.006;2024-02-23T15:16:26;15.10;40.10
30520;DHT22;17300;50.374;8.006;2024-02-23T15:18:53;15.00;40.70
30520;DHT22;17300;50.374;8.006;2024-02-23T15:21:20;15.00;40.10
30520;DHT22;17300;50.374;8.006;2024-02-23T15:23:47;15.00;40.20
30520;DHT22;17300;50.374;8.006;2024-02-23T15:26:14;14.90;40.20
30520;DHT22;17300;50.374;8.006;2024-02-23T15:28:40;15.00;40.30
30520;DHT22;17300;50.374;8.006;2024-02-23T15:31:07;15.00;40.20
30520;DHT22;17300;50.374;8.006;2024-02-23T15:33:35;15.00;40.20
30520;DHT22;17300;50.374;8.006;2024-02-23T15:36:05;15.00;40.30
30520;DHT22;17300;50.374;8.006;2024-02-23T15:38:33;15.10;40.70
30520;DHT22;17300;50.374;8.006;2024-02-23T15:41:00;15.10;40.90
30520;DHT22;17300;50.374;8.006;2024-02-23T15:43:27;15.20;40.90
30520;DHT22;17300;50.374;8.006;2024-02-23T15:45:54;15.30;40.70
30520;DHT22;17300;50.374;8.006;2024-02-23T15:48:21;15.30;40.50
30520;DHT22;17300;50.374;8.006;2024-02-23T15:50:49;15.30;40.20
30520;DHT22;17300;50.374;8.006;2024-02-23T15:53:16;15.30;40.00
30520;DHT22;17300;50.374;8.006;2024-02-23T15:55:43;15.20;39.80